Time;durP1;ratioP1;P1;durP2;ratioP2;P2;SDS_P1;SDS_P2;PMS_P1;PMS_P2;Temp;Humidity;BMP_temperature;BMP_pressure;BME280_temperature;BME280_humidity;BME280_pressure;Samples;Min_cycle;Max_cycle;Signal;HPM_P1;HPM_P2
2022/04/25 00:02:15;;;;;;;7.20;4.73;;;8.10;99.90;;;;;;4971681;28;20562;-61
2022/04/25 00:04:43;;;;;;;13.13;4.67;;;8.00;99.90;;;;;;4973644;28;20214;-61
2022/04/25 00:07:11;;;;;;;11.20;4.80;;;8.10;99.90;;;;;;4988097;28;20203;-60
2022/04/25 00:09:37;;;;;;;5.90;3.87;;;8.20;99.90;;;;;;4955926;28;20813;-61
2022/04/25 00:12:07;;;;;;;6.27;4.10;;;8.20;99.90;;;;;;4962531;28;21103;-61
2022/04/25 00:14:33;;;;;;;10.27;4.23;;;8.20;99.90;;;;;;4995168;28;20210;-62
2022/04/25 00:17:00;;;;;;;9.00;4.37;;;8.20;99.90;;;;;;4974566;28;20198;-61
2022/04/25 00:19:27;;;;;;;5.80;4.30;;;8.20;99.90;;;;;;4987211;28;20204;-61
2022/04/25 00:21:54;;;;;;;7.83;4.57;;;8.20;99.90;;;;;;4972909;28;22148;-61
2022/04/25 00:24:22;;;;;;;7.83;4.53;;;8.10;99.90;;;;;;4985964;28;20203;-64
2022/04/25 00:26:49;;;;;;;8.33;4.43;;;8.10;99.90;;;;;;4955373;28;20211;-61
2022/04/25 00:29:17;;;;;;;9.90;4.60;;;8.10;99.90;;;;;;4946112;28;21160;-61
2022/04/25 00:31:44;;;;;;;5.93;4.27;;;8.10;99.90;;;;;;4973056;28;20229;-61
2022/04/25 00:34:11;;;;;;;7.87;4.20;;;8.10;99.90;;;;;;4972961;28;20202;-60
2022/04/25 00:36:38;;;;;;;9.90;4.33;;;8.10;99.90;;;;;;4960181;28;20203;-61
2022/04/25 00:39:05;;;;;;;7.87;4.70;;;8.20;99.90;;;;;;4972272;28;20203;-61
2022/04/25 00:41:32;;;;;;;8.03;4.17;;;8.20;99.90;;;;;;4972591;28;20206;-61
2022/04/25 00:44:00;;;;;;;7.73;4.40;;;8.20;99.90;;;;;;4968392;28;20207;-61
2022/04/25 00:46:28;;;;;;;6.57;4.23;;;8.20;99.90;;;;;;4950557;28;20211;-61
2022/04/25 00:48:55;;;;;;;11.87;4.30;;;8.20;99.90;;;;;;4972071;28;20230;-61
2022/04/25 00:51:23;;;;;;;7.00;4.13;;;8.20;99.90;;;;;;4960625;28;20199;-61
2022/04/25 00:53:50;;;;;;;7.50;4.80;;;8.20;99.90;;;;;;4988876;28;20226;-61
2022/04/25 00:56:18;;;;;;;8.57;4.73;;;8.20;99.90;;;;;;4975145;28;20809;-60
2022/04/25 00:58:46;;;;;;;9.57;4.93;;;8.20;99.90;;;;;;4977033;28;20260;-61
2022/04/25 01:01:14;;;;;;;9.17;3.97;;;8.20;99.90;;;;;;4965802;28;20222;-60
2022/04/25 01:03:42;;;;;;;14.33;3.93;;;8.20;99.90;;;;;;4979793;28;22790;-61
2022/04/25 01:06:09;;;;;;;10.60;4.17;;;8.20;99.90;;;;;;4966422;28;20209;-61
2022/04/25 01:08:37;;;;;;;8.90;5.10;;;8.20;99.90;;;;;;4977457;28;20210;-61
2022/04/25 01:11:05;;;;;;;8.57;4.63;;;8.30;99.90;;;;;;4970457;28;20210;-60
2022/04/25 01:13:32;;;;;;;8.93;4.30;;;8.30;99.90;;;;;;4979503;28;20238;-60
2022/04/25 01:15:59;;;;;;;9.13;4.80;;;8.30;99.90;;;;;;4972955;28;21692;-61
2022/04/25 01:18:27;;;;;;;9.57;4.63;;;8.30;99.90;;;;;;4968844;28;21112;-61
2022/04/25 01:20:57;;;;;;;7.70;4.80;;;8.30;99.90;;;;;;4989386;28;20203;-60
2022/04/25 01:28:56;;;;;;;7.23;4.30;;;8.20;99.90;;;;;;4967196;28;20827;-61
2022/04/25 01:31:23;;;;;;;8.47;4.27;;;8.30;99.90;;;;;;4963168;28;20891;-61
2022/04/25 01:33:49;;;;;;;7.43;4.20;;;8.30;99.90;;;;;;4971221;28;20227;-61
2022/04/25 01:36:16;;;;;;;7.17;4.83;;;8.30;99.90;;;;;;4965384;28;20205;-61
2022/04/25 01:38:44;;;;;;;9.33;5.03;;;8.40;99.90;;;;;;4971649;28;20218;-61
2022/04/25 01:41:11;;;;;;;8.97;4.47;;;8.40;99.90;;;;;;4970586;28;20213;-62
2022/04/25 01:43:39;;;;;;;10.63;4.43;;;8.40;99.90;;;;;;4976800;28;20215;-62
2022/04/25 01:46:06;;;;;;;8.57;4.53;;;8.40;99.90;;;;;;4972791;28;20206;-61
2022/04/25 01:48:33;;;;;;;12.13;4.70;;;8.40;99.90;;;;;;4952963;28;20214;-61
2022/04/25 01:51:00;;;;;;;7.03;4.93;;;8.30;99.90;;;;;;4968272;28;20210;-61
2022/04/25 01:53:27;;;;;;;11.07;4.80;;;8.30;99.90;;;;;;4984205;28;20328;-61
2022/04/25 01:55:55;;;;;;;9.43;4.77;;;8.30;99.90;;;;;;4968101;28;20323;-61
2022/04/25 01:58:23;;;;;;;9.67;5.07;;;8.30;99.90;;;;;;4974187;28;20200;-61
2022/04/25 02:00:50;;;;;;;11.10;5.33;;;8.30;99.90;;;;;;4973855;28;20902;-61
2022/04/25 02:03:17;;;;;;;8.77;5.13;;;8.30;99.90;;;;;;4962180;28;20225;-61
2022/04/25 02:05:44;;;;;;;5.73;4.60;;;8.30;99.90;;;;;;4977817;28;20206;-61
2022/04/25 02:08:11;;;;;;;5.57;4.07;;;8.30;99.90;;;;;;4977785;28;20210;-60
2022/04/25 02:10:38;;;;;;;8.33;4.67;;;8.30;99.90;;;;;;4961218;28;20566;-61
2022/04/25 02:13:07;;;;;;;11.00;5.23;;;8.30;99.90;;;;;;4973957;28;20215;-60
2022/04/25 02:15:35;;;;;;;9.23;4.73;;;8.30;99.90;;;;;;4977017;28;20204;-61
2022/04/25 02:18:02;;;;;;;8.80;5.43;;;8.20;99.90;;;;;;4946240;28;20257;-61
2022/04/25 02:20:29;;;;;;;7.77;5.00;;;8.20;99.90;;;;;;4980083;28;20207;-61
2022/04/25 02:22:57;;;;;;;9.80;5.50;;;8.10;99.90;;;;;;4963348;28;20218;-62
2022/04/25 02:25:24;;;;;;;11.27;6.20;;;8.00;99.90;;;;;;4965042;28;20645;-61
2022/04/25 02:27:51;;;;;;;11.80;5.80;;;8.10;99.90;;;;;;4967637;28;20206;-61
2022/04/25 02:30:20;;;;;;;7.30;5.23;;;8.10;99.90;;;;;;4982654;28;20203;-60
2022/04/25 02:32:47;;;;;;;5.90;5.30;;;8.10;99.90;;;;;;4973381;28;21375;-60
2022/04/25 02:35:14;;;;;;;9.53;5.47;;;8.10;99.90;;;;;;4967218;28;20294;-61
2022/04/25 02:37:41;;;;;;;10.03;5.60;;;8.10;99.90;;;;;;4966010;28;20879;-61
2022/04/25 02:40:09;;;;;;;11.73;5.57;;;8.00;99.90;;;;;;4986244;28;20222;-60
2022/04/25 02:42:36;;;;;;;11.83;5.90;;;8.10;99.90;;;;;;4959710;28;20239;-60
2022/04/25 02:45:03;;;;;;;9.13;5.37;;;8.10;99.90;;;;;;4966723;28;20214;-61
2022/04/25 02:47:32;;;;;;;10.77;6.17;;;8.10;99.90;;;;;;4974812;28;20209;-61
2022/04/25 02:49:59;;;;;;;8.90;5.67;;;8.00;99.90;;;;;;4953166;28;20222;-61
2022/04/25 02:52:26;;;;;;;8.83;5.87;;;8.10;99.90;;;;;;4974675;28;20234;-61
2022/04/25 02:54:52;;;;;;;9.33;6.00;;;8.00;99.90;;;;;;4983510;28;20215;-60
2022/04/25 02:57:20;;;;;;;6.93;5.47;;;8.10;99.90;;;;;;4969471;28;20590;-61
2022/04/25 02:59:47;;;;;;;12.07;5.53;;;8.00;99.90;;;;;;4966424;28;20761;-61
2022/04/25 03:02:15;;;;;;;12.53;5.50;;;8.00;99.90;;;;;;4974912;28;20681;-61
2022/04/25 03:04:43;;;;;;;7.37;5.17;;;8.00;99.90;;;;;;4962595;28;21209;-61
2022/04/25 03:07:10;;;;;;;8.43;5.00;;;8.00;99.90;;;;;;4981022;28;20217;-60
2022/04/25 03:09:37;;;;;;;16.03;5.43;;;8.00;99.90;;;;;;4966036;28;20784;-60
2022/04/25 03:12:04;;;;;;;9.87;5.60;;;8.00;99.90;;;;;;4971297;28;20205;-61
2022/04/25 03:14:34;;;;;;;11.40;5.47;;;8.00;99.90;;;;;;4970902;28;20822;-61
2022/04/25 03:17:01;;;;;;;10.87;5.50;;;8.00;99.90;;;;;;4969798;28;20218;-61
2022/04/25 03:19:28;;;;;;;9.30;5.23;;;8.00;99.90;;;;;;4980873;28;20250;-60
2022/04/25 03:21:57;;;;;;;9.97;5.30;;;8.00;99.90;;;;;;4962400;28;21122;-60
2022/04/25 03:24:24;;;;;;;11.67;4.77;;;7.90;99.90;;;;;;4980108;28;20216;-60
2022/04/25 03:26:50;;;;;;;9.77;5.63;;;7.90;99.90;;;;;;4951670;28;20210;-61
2022/04/25 03:29:18;;;;;;;13.33;6.10;;;7.90;99.90;;;;;;4967387;28;20222;-61
2022/04/25 03:31:45;;;;;;;9.43;5.27;;;7.90;99.90;;;;;;4962998;28;20285;-61
2022/04/25 03:34:13;;;;;;;7.50;5.40;;;7.80;99.90;;;;;;4977386;28;20233;-60
2022/04/25 03:36:40;;;;;;;9.13;5.10;;;7.90;99.90;;;;;;4967859;28;20241;-61
2022/04/25 03:39:08;;;;;;;8.03;4.90;;;7.90;99.90;;;;;;4955478;28;20298;-66
2022/04/25 03:41:35;;;;;;;10.43;4.53;;;8.00;99.90;;;;;;4975152;28;20930;-61
2022/04/25 03:44:04;;;;;;;13.53;5.47;;;7.90;99.90;;;;;;4969855;28;20226;-61
2022/04/25 03:46:32;;;;;;;8.53;4.93;;;7.90;99.90;;;;;;4962959;28;23880;-61
2022/04/25 03:48:59;;;;;;;8.90;4.53;;;7.90;99.90;;;;;;4986355;28;20737;-61
2022/04/25 03:51:28;;;;;;;10.43;4.80;;;7.80;99.90;;;;;;4964410;28;20214;-62
2022/04/25 03:53:56;;;;;;;7.90;4.93;;;8.40;99.90;;;;;;4980841;28;20231;-61
2022/04/25 03:59:09;;;;;;;14.23;4.93;;;7.90;99.90;;;;;;4964960;28;20296;-61
2022/04/25 04:01:38;;;;;;;8.47;4.90;;;7.80;99.90;;;;;;4948842;28;20955;-60
2022/04/25 04:04:05;;;;;;;8.83;4.57;;;7.90;99.90;;;;;;4962974;28;20265;-60
2022/04/25 04:06:34;;;;;;;7.80;5.00;;;7.80;99.90;;;;;;4963488;28;20233;-61
2022/04/25 04:09:44;;;;;;;8.87;5.10;;;7.80;99.90;;;;;;4961733;28;20224;-60
2022/04/25 04:11:49;;;;;;;10.17;4.57;;;7.70;99.90;;;;;;4961975;28;20245;-59
2022/04/25 04:14:16;;;;;;;12.03;6.37;;;7.80;99.90;;;;;;4990753;28;20525;-58
2022/04/25 04:16:44;;;;;;;6.57;4.50;;;7.70;99.90;;;;;;4951146;28;20226;-60
2022/04/25 04:19:11;;;;;;;8.53;4.77;;;7.70;99.90;;;;;;4974645;28;20334;-60
2022/04/25 04:21:39;;;;;;;7.00;4.53;;;7.70;99.90;;;;;;4947720;28;20227;-61
2022/04/25 04:24:09;;;;;;;8.53;4.50;;;7.80;99.90;;;;;;4964782;28;20234;-60
2022/04/25 04:26:36;;;;;;;7.60;4.60;;;7.70;99.90;;;;;;4989117;28;20222;-61
2022/04/25 04:29:05;;;;;;;7.80;4.73;;;7.70;99.90;;;;;;4972713;28;20369;-60
2022/04/25 04:31:32;;;;;;;9.97;5.27;;;7.70;99.90;;;;;;4963153;28;20225;-60
2022/04/25 04:34:00;;;;;;;6.70;4.40;;;7.70;99.90;;;;;;4959472;28;20280;-60
2022/04/25 04:36:27;;;;;;;9.13;4.27;;;7.70;99.90;;;;;;4944718;28;20231;-61
2022/04/25 04:38:54;;;;;;;7.13;4.10;;;7.60;99.90;;;;;;4928439;28;20801;-61
2022/04/25 04:41:22;;;;;;;6.50;4.10;;;7.60;99.90;;;;;;4963386;28;21697;-61
2022/04/25 04:43:50;;;;;;;7.67;4.43;;;7.50;99.90;;;;;;4958309;28;20229;-61
2022/04/25 04:46:18;;;;;;;7.33;3.90;;;7.50;99.90;;;;;;4947934;28;20234;-61
2022/04/25 04:48:46;;;;;;;6.27;3.83;;;7.60;99.90;;;;;;4959431;28;20223;-60
2022/04/25 04:51:13;;;;;;;9.70;4.10;;;7.50;99.90;;;;;;4964129;28;20342;-60
2022/04/25 04:53:40;;;;;;;10.17;4.40;;;7.60;99.90;;;;;;4948918;28;20223;-61
2022/04/25 04:56:07;;;;;;;6.87;3.87;;;7.60;99.90;;;;;;4953291;28;20262;-62
2022/04/25 04:58:34;;;;;;;6.57;3.40;;;7.60;99.90;;;;;;4974012;28;20229;-62
2022/04/25 05:01:02;;;;;;;11.60;3.63;;;7.50;99.90;;;;;;4936830;28;20572;-61
2022/04/25 05:03:31;;;;;;;7.37;3.50;;;7.50;99.90;;;;;;4982212;28;20209;-62
2022/04/25 05:05:58;;;;;;;5.93;3.40;;;7.60;99.90;;;;;;4963784;28;20230;-62
2022/04/25 05:08:25;;;;;;;7.30;3.50;;;7.60;99.90;;;;;;4967154;28;20226;-62
2022/04/25 05:10:54;;;;;;;6.07;3.70;;;7.60;99.90;;;;;;4934818;28;20233;-66
2022/04/25 05:13:21;;;;;;;4.83;3.07;;;7.60;99.90;;;;;;4980237;28;20222;-61
2022/04/25 05:15:48;;;;;;;8.10;3.50;;;7.60;99.90;;;;;;4961069;28;20205;-62
2022/04/25 05:18:15;;;;;;;6.30;3.50;;;7.70;99.90;;;;;;4975767;28;20218;-62
2022/04/25 05:20:44;;;;;;;5.50;3.23;;;7.70;99.90;;;;;;4988621;28;20977;-61
2022/04/25 05:23:11;;;;;;;4.70;3.07;;;7.70;99.90;;;;;;4946393;28;20214;-62
2022/04/25 05:25:39;;;;;;;7.00;3.47;;;7.70;99.90;;;;;;4952040;28;20213;-62
2022/04/25 05:28:07;;;;;;;6.53;3.73;;;7.70;99.90;;;;;;4984115;28;20202;-61
2022/04/25 05:30:34;;;;;;;6.63;3.80;;;7.70;99.90;;;;;;4977519;28;20227;-61
2022/04/25 05:33:02;;;;;;;7.87;3.97;;;7.90;99.90;;;;;;4982408;28;20230;-61
2022/04/25 05:35:30;;;;;;;4.57;3.07;;;7.90;99.90;;;;;;4993058;28;20203;-61
2022/04/25 05:37:59;;;;;;;7.17;3.17;;;7.80;99.90;;;;;;4987025;28;20211;-61
2022/04/25 05:40:26;;;;;;;8.37;3.67;;;7.80;99.90;;;;;;4979633;28;20226;-61
2022/04/25 05:42:56;;;;;;;7.13;3.57;;;7.80;99.90;;;;;;4977917;28;20234;-61
2022/04/25 05:45:24;;;;;;;5.20;2.90;;;7.80;99.90;;;;;;4980603;28;21005;-61
2022/04/25 05:47:54;;;;;;;7.07;3.43;;;7.80;99.90;;;;;;4975010;28;20901;-62
2022/04/25 05:53:07;;;;;;;7.03;4.03;;;7.70;99.90;;;;;;4989701;28;20238;-61
2022/04/25 05:55:34;;;;;;;10.47;3.23;;;7.70;99.90;;;;;;4968145;28;20219;-62
2022/04/25 05:58:02;;;;;;;10.00;3.20;;;7.70;99.90;;;;;;4974322;28;20242;-61
2022/04/25 06:00:30;;;;;;;9.53;3.70;;;7.80;99.90;;;;;;4974782;28;20611;-62
2022/04/25 06:02:58;;;;;;;7.17;3.40;;;7.80;99.90;;;;;;4987804;28;20203;-60
2022/04/25 06:05:25;;;;;;;10.10;3.87;;;7.70;99.90;;;;;;4994149;28;20298;-62
2022/04/25 06:07:52;;;;;;;6.03;3.43;;;7.70;99.90;;;;;;4992141;28;20811;-61
2022/04/25 06:10:23;;;;;;;4.70;3.53;;;7.70;99.90;;;;;;4978733;28;20202;-61
2022/04/25 06:12:51;;;;;;;9.43;3.53;;;7.70;99.90;;;;;;4973487;28;20326;-62
2022/04/25 06:15:20;;;;;;;7.63;3.57;;;7.70;99.90;;;;;;4975527;28;21342;-61
2022/04/25 06:17:47;;;;;;;7.57;3.07;;;7.80;99.90;;;;;;4992148;28;20209;-61
2022/04/25 06:20:15;;;;;;;6.83;3.40;;;7.80;99.90;;;;;;4966046;28;20225;-61
2022/04/25 06:22:52;;;;;;;8.87;3.47;;;7.80;99.90;;;;;;4989185;28;20301;-61
2022/04/25 06:25:20;;;;;;;4.93;3.20;;;7.80;99.90;;;;;;4986451;28;20644;-62
2022/04/25 06:27:47;;;;;;;6.10;3.37;;;7.80;99.90;;;;;;4974960;28;20221;-61
2022/04/25 06:30:14;;;;;;;4.90;3.30;;;7.80;99.90;;;;;;4984872;28;20201;-61
2022/04/25 06:32:41;;;;;;;6.97;3.20;;;7.90;99.90;;;;;;4979340;28;20199;-60
2022/04/25 06:35:09;;;;;;;8.10;3.20;;;7.90;99.90;;;;;;4986334;28;20219;-59
2022/04/25 06:37:36;;;;;;;9.43;3.67;;;7.90;99.90;;;;;;4993238;28;21046;-59
2022/04/25 06:40:03;;;;;;;5.43;3.37;;;7.90;99.90;;;;;;4977780;28;20211;-62
2022/04/25 06:42:31;;;;;;;8.70;3.33;;;7.90;99.90;;;;;;4976125;28;20217;-61
2022/04/25 06:44:58;;;;;;;5.90;3.40;;;7.90;99.90;;;;;;4982227;28;20209;-63
2022/04/25 06:47:25;;;;;;;8.30;3.70;;;7.90;99.90;;;;;;4978440;28;20210;-62
2022/04/25 06:49:54;;;;;;;7.07;2.63;;;7.90;99.90;;;;;;4969761;28;20297;-61
2022/04/25 06:52:21;;;;;;;9.03;4.23;;;7.80;99.90;;;;;;4991757;28;20237;-61
2022/04/25 06:54:48;;;;;;;6.23;3.50;;;7.80;99.90;;;;;;4981943;28;20242;-61
2022/04/25 06:57:15;;;;;;;5.30;3.47;;;7.80;99.90;;;;;;4970447;28;20210;-61
2022/04/25 06:59:44;;;;;;;7.07;3.30;;;7.90;99.90;;;;;;4989074;28;20203;-60
2022/04/25 07:02:11;;;;;;;7.97;3.00;;;7.90;99.90;;;;;;4984863;28;20226;-61
2022/04/25 07:04:38;;;;;;;9.60;3.27;;;8.00;99.90;;;;;;5004207;28;20194;-61
2022/04/25 07:07:06;;;;;;;8.47;3.70;;;7.90;99.90;;;;;;5013209;28;20259;-61
2022/04/25 07:09:33;;;;;;;6.77;3.60;;;7.90;99.90;;;;;;5001549;28;20208;-61
2022/04/25 07:12:00;;;;;;;6.80;3.23;;;8.00;99.90;;;;;;4980816;28;20210;-61
2022/04/25 07:14:28;;;;;;;7.37;3.47;;;7.90;99.90;;;;;;4979747;28;20237;-62
2022/04/25 07:16:59;;;;;;;6.73;3.80;;;7.90;99.90;;;;;;4967775;28;20210;-61
2022/04/25 07:19:26;;;;;;;8.00;3.53;;;7.90;99.90;;;;;;4989328;28;20206;-61
2022/04/25 07:30:07;;;;;;;9.30;3.90;;;8.10;99.90;;;;;;4958804;28;20301;-60
2022/04/25 07:32:39;;;;;;;6.90;3.37;;;8.20;99.90;;;;;;4973893;28;20207;-61
2022/04/25 07:35:07;;;;;;;8.17;3.90;;;8.20;99.90;;;;;;4977857;28;20326;-61
2022/04/25 07:37:34;;;;;;;7.43;3.80;;;8.20;99.90;;;;;;4983960;28;20949;-61
2022/04/25 07:40:02;;;;;;;7.07;4.37;;;8.20;99.90;;;;;;4983799;28;20199;-60
2022/04/25 07:42:31;;;;;;;5.83;3.90;;;8.30;99.90;;;;;;4977981;28;20273;-61
2022/04/25 07:44:58;;;;;;;6.07;3.97;;;8.20;99.90;;;;;;4968993;28;20222;-61
2022/04/25 07:47:25;;;;;;;5.43;3.80;;;8.20;99.90;;;;;;4980816;28;20222;-61
2022/04/25 07:49:53;;;;;;;7.50;4.23;;;8.30;99.90;;;;;;4973054;28;20207;-61
2022/04/25 07:52:20;;;;;;;7.60;4.50;;;8.40;99.90;;;;;;4983813;28;20213;-64
2022/04/25 07:54:47;;;;;;;9.03;4.33;;;8.40;99.90;;;;;;4986329;28;20333;-61
2022/04/25 07:57:15;;;;;;;9.00;4.17;;;8.50;99.90;;;;;;4992797;28;20203;-61
2022/04/25 07:59:42;;;;;;;6.20;3.83;;;8.40;99.90;;;;;;4972039;28;20217;-61
2022/04/25 08:02:09;;;;;;;7.60;4.00;;;8.50;99.90;;;;;;4972026;28;20748;-61
2022/04/25 08:04:36;;;;;;;5.07;3.80;;;8.60;99.90;;;;;;4979964;28;20219;-61
2022/04/25 08:07:05;;;;;;;8.73;4.37;;;8.70;99.90;;;;;;4973138;28;23179;-61
2022/04/25 08:09:32;;;;;;;7.37;4.17;;;8.90;99.90;;;;;;4990243;28;20205;-61
2022/04/25 08:20:13;;;;;;;5.77;3.77;;;8.90;99.90;;;;;;4964545;28;20332;-62
2022/04/25 08:22:42;;;;;;;7.47;4.10;;;8.90;99.90;;;;;;4984564;28;20206;-62
2022/04/25 08:25:10;;;;;;;6.27;4.23;;;9.10;99.90;;;;;;4980607;28;20294;-62
2022/04/25 08:27:38;;;;;;;5.37;3.37;;;9.00;99.90;;;;;;4990735;28;20203;-61
2022/04/25 08:30:06;;;;;;;8.80;4.03;;;9.10;99.90;;;;;;4975397;28;20230;-61
2022/04/25 08:32:33;;;;;;;5.27;4.03;;;9.20;99.90;;;;;;4970892;28;20233;-61
2022/04/25 08:35:00;;;;;;;6.97;4.17;;;9.30;99.90;;;;;;4974338;28;20285;-62
2022/04/25 08:37:27;;;;;;;6.87;4.60;;;9.40;99.90;;;;;;4978162;28;21695;-61
2022/04/25 08:39:56;;;;;;;6.50;4.67;;;9.50;99.90;;;;;;4974355;28;20671;-61
2022/04/25 08:42:23;;;;;;;7.10;3.80;;;9.60;99.90;;;;;;4979768;28;20822;-62
2022/04/25 08:44:52;;;;;;;8.13;3.93;;;9.60;99.90;;;;;;4974306;28;20218;-63
2022/04/25 08:47:18;;;;;;;4.83;3.57;;;9.60;99.90;;;;;;4966501;28;20585;-61
2022/04/25 08:49:46;;;;;;;7.30;4.27;;;9.70;99.90;;;;;;4975727;28;20200;-62
2022/04/25 08:52:13;;;;;;;5.97;4.10;;;9.80;99.90;;;;;;4974167;28;20195;-63
2022/04/25 08:54:40;;;;;;;5.03;3.97;;;9.80;99.90;;;;;;4979777;28;20218;-62
2022/04/25 08:57:08;;;;;;;7.93;3.80;;;9.80;99.90;;;;;;4980587;28;20203;-62
2022/04/25 08:59:37;;;;;;;5.23;3.83;;;9.90;99.90;;;;;;4969366;28;20230;-61
2022/04/25 09:02:04;;;;;;;5.50;4.27;;;10.10;99.90;;;;;;4987203;28;20648;-61
2022/04/25 09:04:32;;;;;;;8.23;3.73;;;10.20;99.90;;;;;;4960570;28;21060;-61
2022/04/25 09:06:59;;;;;;;7.77;4.17;;;10.30;99.90;;;;;;4982972;28;20217;-61
2022/04/25 09:09:27;;;;;;;6.47;3.83;;;10.50;99.90;;;;;;4964093;28;20211;-62
2022/04/25 09:12:14;;;;;;;6.40;3.97;;;10.50;99.90;;;;;;4982372;28;20697;-62
2022/04/25 09:14:43;;;;;;;5.93;3.57;;;10.60;99.90;;;;;;4976833;28;20226;-62
2022/04/25 09:17:10;;;;;;;5.30;3.93;;;10.70;99.90;;;;;;4975065;28;20210;-61
2022/04/25 09:19:39;;;;;;;6.43;3.63;;;10.70;99.90;;;;;;4971962;28;20582;-62
2022/04/25 09:22:07;;;;;;;4.25;3.70;;;10.80;99.90;;;;;;4976493;28;20210;-62
2022/04/25 09:24:35;;;;;;;8.15;3.38;;;10.90;99.90;;;;;;4970262;28;20214;-62
2022/04/25 09:27:18;;;;;;;5.10;3.47;;;10.90;99.90;;;;;;4979880;28;20209;-61
2022/04/25 09:29:48;;;;;;;5.57;3.77;;;11.00;99.90;;;;;;4978748;28;20212;-62
2022/04/25 09:32:17;;;;;;;7.37;3.80;;;11.10;99.90;;;;;;4992245;28;20203;-61
2022/04/25 09:35:03;;;;;;;6.67;3.40;;;11.20;99.90;;;;;;4977739;28;20235;-61
2022/04/25 09:37:50;;;;;;;6.38;3.60;;;11.30;99.90;;;;;;4977053;28;20803;-61
2022/04/25 09:40:20;;;;;;;6.97;3.47;;;11.30;99.90;;;;;;4976662;28;20265;-61
2022/04/25 09:42:48;;;;;;;5.15;3.83;;;11.50;99.90;;;;;;4983727;28;20729;-61
2022/04/25 09:45:16;;;;;;;3.08;2.78;;;11.50;99.90;;;;;;4973521;28;20203;-61
2022/04/25 09:47:45;;;;;;;7.07;3.15;;;11.50;99.90;;;;;;4988318;28;20294;-61
2022/04/25 09:50:14;;;;;;;7.18;3.33;;;11.40;99.90;;;;;;4978739;28;20897;-61
2022/04/25 09:52:53;;;;;;;5.28;3.72;;;11.30;99.90;;;;;;4979911;28;20195;-61
2022/04/25 09:55:21;;;;;;;5.13;3.50;;;11.40;99.90;;;;;;5007717;28;20207;-60
2022/04/25 09:57:49;;;;;;;7.97;3.63;;;11.50;99.90;;;;;;4998426;28;20207;-60
2022/04/25 10:00:30;;;;;;;6.28;3.50;;;11.50;99.90;;;;;;4984034;28;20226;-61
2022/04/25 10:02:57;;;;;;;6.60;3.13;;;11.30;99.90;;;;;;4991673;28;20214;-61
2022/04/25 10:05:37;;;;;;;11.13;3.33;;;11.30;99.90;;;;;;4962978;28;20248;-62
2022/04/25 10:08:05;;;;;;;10.05;3.17;;;11.40;99.90;;;;;;4965998;28;20214;-61
2022/04/25 10:10:33;;;;;;;4.47;3.28;;;11.40;99.90;;;;;;4973127;28;20222;-61
2022/04/25 10:13:00;;;;;;;5.03;3.10;;;11.50;99.90;;;;;;4973620;28;20215;-61
2022/04/25 10:15:29;;;;;;;4.20;3.30;;;11.70;99.90;;;;;;4992263;28;20233;-61
2022/04/25 10:17:56;;;;;;;4.28;3.33;;;11.60;99.90;;;;;;4975983;28;20227;-62
2022/04/25 10:20:24;;;;;;;4.93;3.22;;;11.70;99.90;;;;;;4978394;28;20214;-62
2022/04/25 10:22:51;;;;;;;6.05;3.15;;;11.80;99.90;;;;;;4984663;28;20562;-62
2022/04/25 10:25:21;;;;;;;6.13;3.53;;;11.90;99.90;;;;;;4983028;28;20210;-62
2022/04/25 10:27:48;;;;;;;5.70;2.83;;;12.10;99.90;;;;;;4985049;28;20203;-62
2022/04/25 10:30:17;;;;;;;4.78;3.47;;;12.20;99.90;;;;;;4997788;28;20287;-62
2022/04/25 10:32:46;;;;;;;4.30;3.15;;;12.20;99.90;;;;;;4981941;28;20210;-62
2022/04/25 10:35:32;;;;;;;3.45;3.15;;;12.30;99.90;;;;;;4975838;28;20234;-61
2022/04/25 10:37:59;;;;;;;5.43;3.13;;;12.50;99.90;;;;;;4973084;28;20206;-62
2022/04/25 10:46:15;;;;;;;4.78;3.35;;;12.50;99.90;;;;;;4974865;28;20234;-61
2022/04/25 10:49:11;;;;;;;4.60;3.03;;;12.60;99.90;;;;;;4966900;28;20220;-62
2022/04/25 10:51:39;;;;;;;4.72;2.58;;;12.50;99.90;;;;;;4919059;28;20209;-61
2022/04/25 10:54:08;;;;;;;4.80;3.15;;;12.50;99.90;;;;;;4976278;28;20206;-67
2022/04/25 10:56:36;;;;;;;3.97;2.97;;;12.60;99.90;;;;;;4979224;28;20243;-63
2022/04/25 10:59:28;;;;;;;6.90;3.15;;;12.70;99.90;;;;;;4985405;28;20227;-62
2022/04/25 11:01:56;;;;;;;6.35;2.97;;;12.70;99.90;;;;;;4969508;28;20222;-62
2022/04/25 11:04:25;;;;;;;6.78;3.58;;;12.80;99.90;;;;;;4972623;28;21737;-61
2022/04/25 11:07:24;;;;;;;5.07;2.88;;;12.80;99.90;;;;;;4973924;28;20847;-62
2022/04/25 11:09:51;;;;;;;9.43;3.30;;;12.80;99.90;;;;;;4964946;28;20207;-61
2022/04/25 11:12:19;;;;;;;4.88;2.78;;;12.70;99.90;;;;;;4989361;28;20198;-61
2022/04/25 11:14:59;;;;;;;9.55;3.50;;;12.80;99.90;;;;;;4968465;28;20301;-61
2022/04/25 11:17:26;;;;;;;4.82;3.00;;;12.80;99.90;;;;;;4989930;28;20214;-61
2022/04/25 11:19:56;;;;;;;4.25;3.47;;;12.80;99.90;;;;;;4977461;28;20199;-61
2022/04/25 11:22:32;;;;;;;3.50;3.08;;;12.90;99.90;;;;;;4959882;28;20222;-61
2022/04/25 11:25:33;;;;;;;6.43;3.55;;;12.90;99.90;;;;;;4948238;28;20207;-62
2022/04/25 11:28:04;;;;;;;3.40;3.00;;;12.90;99.90;;;;;;4986937;28;20601;-62
2022/04/25 11:30:31;;;;;;;8.05;3.35;;;13.00;99.90;;;;;;4977637;28;20203;-62
2022/04/25 11:33:02;;;;;;;6.35;3.22;;;13.10;99.90;;;;;;4988554;28;20209;-62
2022/04/25 11:35:31;;;;;;;7.97;3.10;;;13.20;99.90;;;;;;4974566;28;20227;-62
2022/04/25 11:37:59;;;;;;;6.18;3.60;;;13.30;99.90;;;;;;4972277;28;20223;-61
2022/04/25 11:40:27;;;;;;;3.97;3.30;;;13.50;99.90;;;;;;4955878;28;20257;-62
2022/04/25 11:42:55;;;;;;;3.92;3.22;;;13.50;99.90;;;;;;4974366;28;20230;-62
2022/04/25 11:45:22;;;;;;;5.82;2.90;;;13.60;99.90;;;;;;4979679;28;20231;-62
2022/04/25 11:47:49;;;;;;;3.58;3.28;;;13.60;99.90;;;;;;4987353;28;20198;-62
2022/04/25 11:50:20;;;;;;;5.97;3.05;;;13.70;99.90;;;;;;4985713;28;20206;-61
2022/04/25 11:52:51;;;;;;;5.43;2.92;;;13.70;99.90;;;;;;4966223;28;20710;-61
2022/04/25 11:55:19;;;;;;;6.05;3.30;;;13.60;99.90;;;;;;4951360;28;20238;-61
2022/04/25 11:57:46;;;;;;;5.88;2.92;;;13.70;99.90;;;;;;4965545;28;20238;-61
2022/04/25 12:00:17;;;;;;;5.30;3.13;;;13.80;99.90;;;;;;4966535;28;20973;-61
2022/04/25 12:02:45;;;;;;;4.35;3.22;;;13.80;99.90;;;;;;4978182;28;20215;-62
2022/04/25 12:05:13;;;;;;;3.35;2.78;;;13.80;99.90;;;;;;4979164;28;20218;-62
2022/04/25 12:15:34;;;;;;;3.80;3.30;;;13.80;99.90;;;;;;5003382;28;20289;-62
2022/04/25 12:16:04;;;;;;;4.85;3.22;;;14.00;99.90;;;;;;4970177;28;20300;-62
2022/04/25 12:18:32;;;;;;;6.43;3.25;;;14.00;99.90;;;;;;4993220;28;20847;-61
2022/04/25 12:21:04;;;;;;;4.20;3.25;;;14.00;99.90;;;;;;4978950;28;20222;-61
2022/04/25 12:23:36;;;;;;;4.65;3.13;;;14.00;99.90;;;;;;5000766;28;20661;-62
2022/04/25 12:26:06;;;;;;;12.25;3.65;;;14.00;99.90;;;;;;4963965;28;21000;-61
2022/04/25 12:28:37;;;;;;;5.05;3.60;;;14.00;99.90;;;;;;4987321;28;20209;-61
2022/04/25 12:31:08;;;;;;;4.88;3.10;;;13.80;99.90;;;;;;4968282;28;20745;-61
2022/04/25 12:33:37;;;;;;;7.38;3.65;;;13.80;99.90;;;;;;4987771;28;20257;-61
2022/04/25 12:36:14;;;;;;;6.70;3.58;;;13.80;99.90;;;;;;4983283;28;20262;-62
2022/04/25 12:38:43;;;;;;;4.68;3.08;;;13.90;99.90;;;;;;4967420;28;20259;-61
2022/04/25 12:41:21;;;;;;;3.83;3.10;;;13.90;99.90;;;;;;4988064;28;20277;-62
2022/04/25 12:43:50;;;;;;;5.22;3.90;;;14.00;99.90;;;;;;4947880;28;20536;-62
2022/04/25 12:46:19;;;;;;;7.53;3.75;;;14.00;99.90;;;;;;4936520;28;21235;-63
2022/04/25 12:49:07;;;;;;;5.07;3.22;;;14.10;99.90;;;;;;4928034;28;20222;-62
2022/04/25 12:51:38;;;;;;;7.25;4.07;;;14.20;99.90;;;;;;4964433;28;20222;-62
2022/04/25 12:54:07;;;;;;;7.78;3.90;;;14.30;99.90;;;;;;4967247;28;20833;-62
2022/04/25 12:56:37;;;;;;;7.20;3.60;;;14.30;99.90;;;;;;4944743;28;20234;-60
2022/04/25 12:59:04;;;;;;;7.00;3.40;;;14.30;99.90;;;;;;4943950;28;21268;-61
2022/04/25 13:01:35;;;;;;;3.78;3.30;;;14.30;99.90;;;;;;4947686;28;20685;-62
2022/04/25 13:04:11;;;;;;;4.57;3.33;;;14.40;99.90;;;;;;4953338;28;20761;-62
2022/04/25 13:06:38;;;;;;;7.75;3.75;;;14.30;99.90;;;;;;4963789;28;20869;-63
2022/04/25 13:09:06;;;;;;;6.63;4.20;;;14.30;99.90;;;;;;4963800;28;20857;-61
2022/04/25 13:11:34;;;;;;;7.65;4.30;;;14.30;99.90;;;;;;4959280;28;20222;-62
2022/04/25 13:14:03;;;;;;;5.45;4.05;;;14.30;99.90;;;;;;4937558;28;21152;-61
2022/04/25 13:16:30;;;;;;;5.38;3.85;;;14.30;99.90;;;;;;4960333;28;20729;-61
2022/04/25 13:18:58;;;;;;;5.75;3.42;;;14.30;99.90;;;;;;4947578;28;20209;-62
2022/04/25 13:21:26;;;;;;;4.57;3.45;;;14.30;99.90;;;;;;4956242;28;20211;-61
2022/04/25 13:23:53;;;;;;;6.57;3.22;;;14.20;99.90;;;;;;4959687;28;20213;-62
2022/04/25 13:26:21;;;;;;;6.82;4.47;;;14.30;99.90;;;;;;4958037;28;20211;-62
2022/04/25 13:28:49;;;;;;;5.90;3.70;;;14.30;99.90;;;;;;4959147;28;20206;-63
2022/04/25 13:31:25;;;;;;;5.45;3.72;;;14.30;99.90;;;;;;4977304;28;20270;-61
2022/04/25 13:34:00;;;;;;;5.30;3.45;;;14.30;99.90;;;;;;5005964;28;20218;-61
2022/04/25 13:36:28;;;;;;;5.53;3.80;;;14.30;99.90;;;;;;4972877;28;20365;-60
2022/04/25 13:38:56;;;;;;;5.75;3.65;;;14.40;99.90;;;;;;4962053;28;20618;-61
2022/04/25 13:41:24;;;;;;;4.43;3.90;;;14.40;99.90;;;;;;4958439;28;20238;-60